createdAt,value
2019-01-12T00:02:27.987Z,98511.23
2019-01-12T00:04:57.015Z,98512.74
2019-01-12T00:07:26.011Z,98510.25
2019-01-12T00:09:54.995Z,98516.68
2019-01-12T00:12:24.160Z,98514.86
2019-01-12T00:14:53.259Z,98520.61
2019-01-12T00:17:22.287Z,98514.05
2019-01-12T00:19:51.234Z,98524.19
2019-01-12T00:22:20.171Z,98522.25
2019-01-12T00:24:49.147Z,98525.98
2019-01-12T00:27:18.186Z,98525.98
2019-01-12T00:29:47.127Z,98521.92
2019-01-12T00:32:16.069Z,98524.56
2019-01-12T00:34:45.102Z,98523.41
2019-01-12T00:37:14.006Z,98517.33
2019-01-12T00:39:42.955Z,98519.78
2019-01-12T00:42:11.950Z,98524.56
2019-01-12T00:44:41.006Z,98523.88
2019-01-12T00:47:10.162Z,98531.27
2019-01-12T00:49:39.188Z,98532.41
2019-01-12T00:52:08.245Z,98532.36
2019-01-12T00:54:38.724Z,98527.97
2019-01-12T00:57:07.978Z,98531.09
2019-01-12T00:59:36.958Z,98539.77
2019-01-12T01:02:05.980Z,98537.78
2019-01-12T01:04:34.946Z,98535.03
2019-01-12T01:07:03.989Z,98538.13
2019-01-12T01:09:32.996Z,98536.04
2019-01-12T01:12:02.062Z,98536.88
2019-01-12T01:14:31.096Z,98540.14
2019-01-12T01:17:00.139Z,98536.61
2019-01-12T01:19:29.141Z,98535.73
2019-01-12T01:21:58.325Z,98542.48
2019-01-12T01:24:27.293Z,98543.82
2019-01-12T01:26:56.322Z,98544.28
2019-01-12T01:29:25.364Z,98548.74
2019-01-12T01:31:54.322Z,98552.72
2019-01-12T01:34:23.235Z,98556.52
2019-01-12T01:36:52.387Z,98553.78
2019-01-12T01:39:21.412Z,98551.95
2019-01-12T01:41:50.456Z,98554.89
2019-01-12T01:44:19.587Z,98562.55
2019-01-12T01:46:48.679Z,98560.28
2019-01-12T01:49:18.593Z,98557.14
2019-01-12T01:51:47.687Z,98565.05
2019-01-12T01:54:16.766Z,98562.02
2019-01-12T01:56:45.721Z,98568.47
2019-01-12T01:59:14.729Z,98566.23
2019-01-12T02:01:43.687Z,98563.33
2019-01-12T02:04:12.627Z,98560.72
2019-01-12T02:06:41.602Z,98566.70
2019-01-12T02:09:10.574Z,98570.78
2019-01-12T02:11:39.402Z,98564.22
2019-01-12T02:14:08.387Z,98559.02
2019-01-12T02:16:37.275Z,98562.44
2019-01-12T02:19:06.288Z,98560.09
2019-01-12T02:21:35.182Z,98561.14
2019-01-12T02:24:04.162Z,98561.64
2019-01-12T02:26:33.178Z,98564.44
2019-01-12T02:29:02.157Z,98568.16
2019-01-12T02:31:31.141Z,98561.40
2019-01-12T02:34:00.123Z,98560.24
2019-01-12T02:36:29.025Z,98557.30
2019-01-12T02:38:57.940Z,98564.18
2019-01-12T02:41:26.852Z,98557.57
2019-01-12T02:43:55.825Z,98557.57
2019-01-12T02:46:24.801Z,98560.03
2019-01-12T02:48:53.707Z,98558.61
2019-01-12T02:51:22.534Z,98555.98
2019-01-12T02:53:51.368Z,98555.45
2019-01-12T02:56:20.361Z,98554.36
2019-01-12T02:58:49.346Z,98554.05
2019-01-12T03:01:18.166Z,98560.34
2019-01-12T03:03:47.058Z,98561.97
2019-01-12T03:06:16.045Z,98558.36
2019-01-12T03:08:44.944Z,98555.82
2019-01-12T03:11:13.953Z,98551.20
2019-01-12T03:13:43.034Z,98545.75
2019-01-12T03:16:12.400Z,98549.22
2019-01-12T03:18:41.288Z,98551.20
2019-01-12T03:21:10.281Z,98548.89
2019-01-12T03:23:39.176Z,98547.23
2019-01-12T03:26:08.180Z,98539.82
2019-01-12T03:28:37.017Z,98548.96
2019-01-12T03:31:05.949Z,98549.70
2019-01-12T03:33:34.873Z,98551.63
2019-01-12T03:36:03.851Z,98554.56
2019-01-12T03:38:32.783Z,98553.78
2019-01-12T03:41:01.687Z,98550.48
2019-01-12T03:43:30.499Z,98545.59
2019-01-12T03:45:59.674Z,98546.44
2019-01-12T03:48:28.650Z,98538.92
2019-01-12T03:50:57.574Z,98548.73
2019-01-12T03:53:26.495Z,98538.72
2019-01-12T03:55:55.384Z,98535.41
2019-01-12T03:58:24.372Z,98524.39
2019-01-12T04:00:53.340Z,98531.42
2019-01-12T04:03:22.321Z,98532.74
2019-01-12T04:05:51.566Z,98529.28
2019-01-12T04:08:20.546Z,98524.72
2019-01-12T04:10:49.442Z,98533.42
2019-01-12T04:13:18.284Z,98523.92
2019-01-12T04:15:47.180Z,98522.41
2019-01-12T04:18:16.085Z,98506.08
2019-01-12T04:20:44.997Z,98508.33
2019-01-12T04:23:13.973Z,98507.98
2019-01-12T04:25:42.947Z,98512.80
2019-01-12T04:28:11.852Z,98510.95
2019-01-12T04:30:40.823Z,98511.28
2019-01-12T04:33:09.739Z,98514.63
2019-01-12T04:35:38.654Z,98503.77
2019-01-12T04:38:07.645Z,98511.12
2019-01-12T04:40:36.604Z,98509.02
2019-01-12T04:43:05.618Z,98500.78
2019-01-12T04:45:34.513Z,98505.11
2019-01-12T04:48:03.412Z,98494.09
2019-01-12T04:50:32.407Z,98502.31
2019-01-12T04:53:01.324Z,98504.94
2019-01-12T04:55:30.228Z,98500.64
2019-01-12T04:57:59.150Z,98504.26
2019-01-12T05:00:28.137Z,98503.14
2019-01-12T05:02:57.147Z,98498.27
2019-01-12T05:05:26.106Z,98508.45
2019-01-12T05:07:55.014Z,98511.39
2019-01-12T05:10:23.914Z,98502.20
2019-01-12T05:12:52.934Z,98513.02
2019-01-12T05:15:21.827Z,98511.03
2019-01-12T05:17:50.750Z,98515.48
2019-01-12T05:20:21.116Z,98513.06
2019-01-12T05:22:50.244Z,98518.16
2019-01-12T05:25:19.623Z,98512.42
2019-01-12T05:27:48.678Z,98513.89
2019-01-12T05:30:19.737Z,98507.34
2019-01-12T05:32:48.732Z,98515.42
2019-01-12T05:35:17.714Z,98516.25
2019-01-12T05:37:46.699Z,98516.25
2019-01-12T05:40:15.811Z,98515.42
2019-01-12T05:42:44.820Z,98509.53
2019-01-12T05:45:13.960Z,98512.95
2019-01-12T05:47:42.964Z,98515.26
2019-01-12T05:50:13.105Z,98508.06
2019-01-12T05:52:42.092Z,98512.00
2019-01-12T05:55:11.204Z,98506.23
2019-01-12T05:57:40.193Z,98502.89
2019-01-12T06:00:18.105Z,98515.05
2019-01-12T06:02:47.104Z,98512.59
2019-01-12T06:05:16.136Z,98517.41
2019-01-12T06:07:45.084Z,98517.26
2019-01-12T06:10:14.829Z,98525.64
2019-01-12T06:12:43.885Z,98527.95
2019-01-12T06:15:13.185Z,98528.95
2019-01-12T06:17:42.188Z,98533.72
2019-01-12T06:20:12.140Z,98533.25
2019-01-12T06:22:41.162Z,98530.30
2019-01-12T06:25:10.166Z,98534.40
2019-01-12T06:27:39.146Z,98527.64
2019-01-12T06:30:11.127Z,98528.80
2019-01-12T06:32:40.040Z,98533.72
2019-01-12T06:35:09.064Z,98527.00
2019-01-12T06:37:38.122Z,98532.56
2019-01-12T06:40:09.387Z,98529.30
2019-01-12T06:42:38.325Z,98524.50
2019-01-12T06:45:08.791Z,98526.48
2019-01-12T06:47:37.777Z,98524.86
2019-01-12T06:50:07.970Z,98531.30
2019-01-12T06:52:36.927Z,98528.99
2019-01-12T06:55:07.296Z,98532.61
2019-01-12T06:57:36.294Z,98527.36
2019-01-12T07:00:08.872Z,98527.84
2019-01-12T07:02:37.882Z,98530.98
2019-01-12T07:05:07.180Z,98527.88
2019-01-12T07:07:36.233Z,98534.24
2019-01-12T07:10:06.742Z,98539.17
2019-01-12T07:12:35.649Z,98534.09
2019-01-12T07:15:05.452Z,98538.37
2019-01-12T07:17:34.370Z,98536.40
2019-01-12T07:20:03.394Z,98528.88
2019-01-12T07:22:32.373Z,98530.34
2019-01-12T07:25:01.227Z,98531.94
2019-01-12T07:27:30.177Z,98534.56
2019-01-12T07:29:59.226Z,98530.83
2019-01-12T07:32:28.247Z,98543.59
2019-01-12T07:34:57.355Z,98541.00
2019-01-12T07:37:26.314Z,98537.70
2019-01-12T07:39:55.244Z,98549.20
2019-01-12T07:42:24.210Z,98548.56
2019-01-12T07:44:53.216Z,98556.12
2019-01-12T07:47:22.090Z,98554.81
2019-01-12T07:49:51.076Z,98559.11
2019-01-12T07:52:19.993Z,98556.60
2019-01-12T07:54:48.826Z,98558.59
2019-01-12T07:57:17.835Z,98564.04
2019-01-12T07:59:46.659Z,98562.88
2019-01-12T08:02:15.579Z,98568.41
2019-01-12T08:04:44.459Z,98566.78
2019-01-12T08:07:13.445Z,98572.44
2019-01-12T08:09:42.408Z,98568.30
2019-01-12T08:12:11.439Z,98573.63
2019-01-12T08:14:40.421Z,98574.47
2019-01-12T08:17:09.926Z,98582.51
2019-01-12T08:19:38.909Z,98574.59
2019-01-12T08:22:07.824Z,98573.64
2019-01-12T08:24:36.786Z,98574.52
2019-01-12T08:27:05.792Z,98573.88
2019-01-12T08:29:34.703Z,98579.77
2019-01-12T08:32:03.693Z,98571.41
2019-01-12T08:34:32.585Z,98575.35
2019-01-12T08:37:01.584Z,98570.53
2019-01-12T08:39:30.622Z,98572.52
2019-01-12T08:41:59.559Z,98568.07
2019-01-12T08:44:28.534Z,98568.23
2019-01-12T08:46:57.364Z,98564.97
2019-01-12T08:49:26.183Z,98558.63
2019-01-12T08:51:55.011Z,98567.43
2019-01-12T08:54:23.998Z,98541.53
2019-01-12T08:56:53.130Z,98557.27
2019-01-12T08:59:24.572Z,98548.34
2019-01-12T09:01:53.611Z,98556.92
2019-01-12T09:04:22.626Z,98554.34
2019-01-12T09:06:51.597Z,98557.20
2019-01-12T09:09:20.571Z,98554.78
2019-01-12T09:11:49.493Z,98559.98
2019-01-12T09:14:18.309Z,98558.00
2019-01-12T09:16:47.298Z,98563.77
2019-01-12T09:19:16.262Z,98555.38
2019-01-12T09:21:45.302Z,98559.52
2019-01-12T09:24:14.228Z,98561.06
2019-01-12T09:26:45.025Z,98561.10
2019-01-12T09:29:13.775Z,98551.23
2019-01-12T09:31:42.763Z,98556.40
2019-01-12T09:34:11.672Z,98558.18
2019-01-12T09:36:40.639Z,98555.40
2019-01-12T09:39:09.982Z,98554.72
2019-01-12T09:41:38.939Z,98554.35
2019-01-12T09:44:07.916Z,98550.86
2019-01-12T09:46:36.797Z,98545.84
2019-01-12T09:49:05.715Z,98555.03
2019-01-12T09:51:34.674Z,98541.39
2019-01-12T09:54:03.577Z,98545.53
2019-01-12T09:56:32.635Z,98552.62
2019-01-12T09:59:01.471Z,98545.27
2019-01-12T10:01:30.432Z,98539.58
2019-01-12T10:03:59.504Z,98535.64
2019-01-12T10:06:28.459Z,98541.73
2019-01-12T10:08:57.452Z,98533.69
2019-01-12T10:11:26.345Z,98528.72
2019-01-12T10:13:55.325Z,98530.91
2019-01-12T10:16:24.300Z,98528.48
2019-01-12T10:18:53.315Z,98515.75
2019-01-12T10:21:22.190Z,98516.78
2019-01-12T10:23:51.178Z,98515.59
2019-01-12T10:26:20.184Z,98516.80
2019-01-12T10:28:49.331Z,98516.31
2019-01-12T10:31:18.331Z,98509.98
2019-01-12T10:33:47.372Z,98505.22
2019-01-12T10:36:16.314Z,98500.48
2019-01-12T10:38:45.271Z,98505.61
2019-01-12T10:41:14.302Z,98501.98
2019-01-12T10:43:43.261Z,98497.70
2019-01-12T10:46:12.276Z,98501.00
2019-01-12T10:48:41.354Z,98495.11
2019-01-12T10:51:10.398Z,98500.16
2019-01-12T10:53:39.324Z,98490.50
2019-01-12T10:56:08.278Z,98497.17
2019-01-12T10:58:37.366Z,98485.88
2019-01-12T11:01:06.423Z,98491.65
2019-01-12T11:03:35.482Z,98482.74
2019-01-12T11:06:04.898Z,98473.28
2019-01-12T11:08:33.929Z,98467.73
2019-01-12T11:11:03.144Z,98465.98
2019-01-12T11:13:32.112Z,98473.25
2019-01-12T11:16:01.150Z,98472.25
2019-01-12T11:18:30.165Z,98468.54
2019-01-12T11:20:59.291Z,98468.37
2019-01-12T11:23:28.401Z,98456.42
2019-01-12T11:25:57.428Z,98455.98
2019-01-12T11:28:26.339Z,98453.17
2019-01-12T11:30:55.182Z,98455.66
2019-01-12T11:33:24.158Z,98449.79
2019-01-12T11:35:53.137Z,98437.78
2019-01-12T11:38:22.061Z,98442.88
2019-01-12T11:40:50.954Z,98434.05
2019-01-12T11:43:19.934Z,98430.10
2019-01-12T11:45:48.848Z,98424.17
2019-01-12T11:48:17.755Z,98422.02
2019-01-12T11:50:46.757Z,98410.05
2019-01-12T11:53:15.712Z,98411.53
2019-01-12T11:55:44.682Z,98409.59
2019-01-12T11:58:13.643Z,98405.80
2019-01-12T12:00:42.705Z,98394.95
2019-01-12T12:03:11.598Z,98394.77
2019-01-12T12:05:40.585Z,98395.92
2019-01-12T12:08:09.573Z,98392.45
2019-01-12T12:10:38.564Z,98393.13
2019-01-12T12:13:07.534Z,98383.45
2019-01-12T12:15:36.458Z,98384.59
2019-01-12T12:18:05.419Z,98374.89
2019-01-12T12:20:34.437Z,98380.47
2019-01-12T12:23:03.430Z,98357.48
2019-01-12T12:25:32.448Z,98360.80
2019-01-12T12:28:01.418Z,98361.97
2019-01-12T12:30:31.318Z,98358.33
2019-01-12T12:33:00.303Z,98353.91
2019-01-12T12:35:29.323Z,98355.23
2019-01-12T12:37:58.739Z,98363.59
2019-01-12T12:40:27.808Z,98362.45
2019-01-12T12:42:56.787Z,98350.64
2019-01-12T12:45:28.770Z,98356.03
2019-01-12T12:47:57.764Z,98348.33
2019-01-12T12:50:26.862Z,98348.31
2019-01-12T12:52:55.898Z,98345.70
2019-01-12T12:55:24.905Z,98337.95
2019-01-12T12:57:53.954Z,98330.10
2019-01-12T13:00:24.984Z,98327.28
2019-01-12T13:02:54.011Z,98328.28
2019-01-12T13:05:23.085Z,98314.31
2019-01-12T13:07:52.088Z,98325.33
2019-01-12T13:10:23.363Z,98319.58
2019-01-12T13:12:52.343Z,98316.77
2019-01-12T13:15:21.310Z,98312.83
2019-01-12T13:17:50.299Z,98311.52
2019-01-12T13:20:20.723Z,98306.92
2019-01-12T13:22:50.092Z,98313.47
2019-01-12T13:25:19.217Z,98304.29
2019-01-12T13:27:48.276Z,98300.83
2019-01-12T13:30:22.219Z,98300.00
2019-01-12T13:32:51.748Z,98298.84
2019-01-12T13:35:21.042Z,98296.38
2019-01-12T13:37:50.386Z,98290.97
2019-01-12T13:40:21.882Z,98305.09
2019-01-12T13:42:50.749Z,98295.06
2019-01-12T13:45:20.503Z,98297.86
2019-01-12T13:47:49.979Z,98299.49
2019-01-12T13:50:21.153Z,98303.44
2019-01-12T13:52:50.167Z,98300.16
2019-01-12T13:55:19.193Z,98301.47
2019-01-12T13:57:48.836Z,98290.95
2019-01-12T14:00:23.334Z,98299.50
2019-01-12T14:02:52.382Z,98300.98
2019-01-12T14:05:21.297Z,98294.58
2019-01-12T14:07:56.104Z,98285.05
2019-01-12T14:10:21.806Z,98276.50
2019-01-12T14:12:50.849Z,98293.08
2019-01-12T14:15:19.838Z,98291.95
2019-01-12T14:17:48.930Z,98278.63
2019-01-12T14:20:21.032Z,98281.91
2019-01-12T14:22:50.185Z,98271.70
2019-01-12T14:25:19.121Z,98276.66
2019-01-12T14:27:54.323Z,98275.66
2019-01-12T14:30:19.143Z,98269.25
2019-01-12T14:32:48.137Z,98268.94
2019-01-12T14:35:17.298Z,98265.80
2019-01-12T14:37:46.313Z,98265.79
2019-01-12T14:40:17.185Z,98254.13
2019-01-12T14:42:46.266Z,98258.56
2019-01-12T14:45:26.844Z,98255.30
2019-01-12T14:47:56.256Z,98237.38
2019-01-12T14:50:25.269Z,98229.31
2019-01-12T14:52:54.315Z,98219.10
2019-01-12T14:55:23.686Z,98230.42
2019-01-12T14:57:52.676Z,98221.42
2019-01-12T15:00:23.661Z,98229.31
2019-01-12T15:02:52.622Z,98238.34
2019-01-12T15:05:23.569Z,98214.84
2019-01-12T15:07:52.675Z,98216.02
2019-01-12T15:10:22.125Z,98222.42
2019-01-12T15:12:51.531Z,98216.99
2019-01-12T15:15:20.605Z,98209.45
2019-01-12T15:17:49.741Z,98200.73
2019-01-12T15:20:21.086Z,98193.19
2019-01-12T15:22:50.077Z,98198.92
2019-01-12T15:25:19.140Z,98182.66
2019-01-12T15:27:48.124Z,98172.14
2019-01-12T15:30:22.350Z,98173.98
2019-01-12T15:32:51.356Z,98165.27
2019-01-12T15:35:20.885Z,98170.03
2019-01-12T15:37:49.897Z,98166.41
2019-01-12T15:40:19.830Z,98167.06
2019-01-12T15:42:48.862Z,98169.52
2019-01-12T15:45:20.376Z,98160.31
2019-01-12T15:47:49.495Z,98153.56
2019-01-12T15:50:20.289Z,98156.02
2019-01-12T15:52:49.283Z,98139.94
2019-01-12T15:55:18.320Z,98147.69
2019-01-12T15:57:47.322Z,98139.77
2019-01-12T16:00:21.662Z,98144.05
2019-01-12T16:02:50.681Z,98137.48
2019-01-12T16:05:19.697Z,98140.42
2019-01-12T16:07:49.053Z,98128.77
2019-01-12T16:10:18.088Z,98139.10
2019-01-12T16:12:47.091Z,98135.50
2019-01-12T16:15:21.082Z,98130.39
2019-01-12T16:17:50.419Z,98128.59
2019-01-12T16:20:24.581Z,98113.30
2019-01-12T16:22:53.660Z,98127.09
2019-01-12T16:25:22.675Z,98114.42
2019-01-12T16:27:51.674Z,98111.63
2019-01-12T16:30:21.165Z,98116.56
2019-01-12T16:32:50.532Z,98105.39
2019-01-12T16:35:19.857Z,98101.75
2019-01-12T16:37:48.884Z,98085.01
2019-01-12T16:40:20.065Z,98101.75
2019-01-12T16:42:48.989Z,98090.09
2019-01-12T16:45:18.215Z,98082.34
2019-01-12T16:47:47.164Z,98078.56
2019-01-12T16:50:16.444Z,98091.05
2019-01-12T16:52:45.440Z,98085.80
2019-01-12T16:55:15.716Z,98083.16
2019-01-12T16:57:44.844Z,98080.54
2019-01-12T17:00:19.278Z,98075.28
2019-01-12T17:02:48.302Z,98080.19
2019-01-12T17:05:17.345Z,98072.28
2019-01-12T17:07:46.325Z,98075.92
2019-01-12T17:10:17.114Z,98071.63
2019-01-12T17:12:46.096Z,98072.94
2019-01-12T17:15:16.731Z,98080.95
2019-01-12T17:17:45.725Z,98078.66
2019-01-12T17:20:20.269Z,98073.77
2019-01-12T17:22:50.061Z,98074.91
2019-01-12T17:25:19.732Z,98073.91
2019-01-12T17:27:48.644Z,98077.06
2019-01-12T17:30:19.454Z,98071.13
2019-01-12T17:32:48.438Z,98068.34
2019-01-12T17:35:17.549Z,98071.44
2019-01-12T17:37:47.497Z,98072.09
2019-01-12T17:40:16.716Z,98060.61
2019-01-12T17:42:45.618Z,98055.49
2019-01-12T17:45:17.122Z,98059.66
2019-01-12T17:47:46.095Z,98048.63
2019-01-12T17:50:17.270Z,98049.20
2019-01-12T17:52:46.273Z,98030.64
2019-01-12T17:55:17.097Z,98025.61
2019-01-12T17:57:46.094Z,98031.10
2019-01-12T18:00:20.697Z,98029.44
2019-01-12T18:02:49.607Z,98025.86
2019-01-12T18:05:18.494Z,98009.56
2019-01-12T18:07:47.489Z,98014.03
2019-01-12T18:10:16.915Z,98011.41
2019-01-12T18:12:45.894Z,98009.79
2019-01-12T18:15:15.089Z,98006.68
2019-01-12T18:17:44.189Z,98010.32
2019-01-12T18:20:14.182Z,97991.25
2019-01-12T18:22:43.181Z,97995.86
2019-01-12T18:25:12.515Z,97992.92
2019-01-12T18:27:41.487Z,97990.13
2019-01-12T18:30:14.320Z,97982.56
2019-01-12T18:32:43.294Z,97976.81
2019-01-12T18:35:12.367Z,97972.39
2019-01-12T18:37:41.268Z,97973.53
2019-01-12T18:40:13.180Z,97962.89
2019-01-12T18:42:42.169Z,97955.84
2019-01-12T18:45:12.821Z,97963.73
2019-01-12T18:47:41.755Z,97958.17
2019-01-12T18:50:22.492Z,97950.47
2019-01-12T18:52:51.592Z,97938.79
2019-01-12T18:55:20.875Z,97942.55
2019-01-12T18:57:49.898Z,97936.52
2019-01-12T19:00:21.003Z,97931.09
2019-01-12T19:02:49.987Z,97934.72
2019-01-12T19:05:18.971Z,97922.59
2019-01-12T19:07:47.971Z,97915.66
2019-01-12T19:10:17.169Z,97920.09
2019-01-12T19:12:46.156Z,97915.67
2019-01-12T19:15:28.917Z,97901.23
2019-01-12T19:17:57.890Z,97906.47
2019-01-12T19:20:27.188Z,97896.63
2019-01-12T19:22:56.380Z,97895.63
2019-01-12T19:25:25.364Z,97886.42
2019-01-12T19:27:54.262Z,97884.33
2019-01-12T19:30:23.986Z,97879.69
2019-01-12T19:32:52.969Z,97884.29
2019-01-12T19:35:21.996Z,97873.47
2019-01-12T19:37:50.996Z,97870.02
2019-01-12T19:40:22.100Z,97870.97
2019-01-12T19:42:50.990Z,97868.39
2019-01-12T19:45:19.982Z,97864.64
2019-01-12T19:47:48.957Z,97861.30
2019-01-12T19:50:23.031Z,97856.34
2019-01-12T19:52:52.270Z,97857.36
2019-01-12T19:55:21.249Z,97855.09
2019-01-12T19:57:50.242Z,97845.53
2019-01-12T20:00:21.608Z,97849.48
2019-01-12T20:02:50.605Z,97857.84
2019-01-12T20:05:19.601Z,97849.31
2019-01-12T20:07:48.804Z,97845.06
2019-01-12T20:10:18.164Z,97845.72
2019-01-12T20:12:47.178Z,97844.29
2019-01-12T20:15:24.286Z,97838.91
2019-01-12T20:17:53.281Z,97841.36
2019-01-12T20:20:22.266Z,97845.42
2019-01-12T20:22:51.251Z,97840.70
2019-01-12T20:25:25.969Z,97826.56
2019-01-12T20:27:54.877Z,97822.17
2019-01-12T20:30:28.973Z,97815.95
2019-01-12T20:33:42.710Z,97819.23
2019-01-12T20:36:48.995Z,97825.97
2019-01-12T20:39:43.081Z,97817.33
2019-01-12T20:42:51.104Z,97807.31
2019-01-12T20:45:53.243Z,97819.77
2019-01-12T20:49:06.061Z,97801.69
2019-01-12T20:51:56.793Z,97804.69
2019-01-12T20:55:18.962Z,97799.89
2019-01-12T20:58:06.209Z,97790.17
2019-01-12T21:01:07.620Z,97792.34
2019-01-12T21:04:07.602Z,97784.69
2019-01-12T21:07:14.718Z,97783.20
2019-01-12T21:10:13.066Z,97784.83
2019-01-12T21:13:22.325Z,97772.22
2019-01-12T21:15:57.133Z,97769.92
2019-01-12T21:18:26.084Z,97764.36
2019-01-12T21:20:54.973Z,97763.21
2019-01-12T21:23:23.942Z,97757.67
2019-01-12T21:25:52.770Z,97758.34
2019-01-12T21:28:21.677Z,97764.91
2019-01-12T21:30:50.660Z,97757.33
2019-01-12T21:33:19.577Z,97757.78
2019-01-12T21:35:48.638Z,97754.39
2019-01-12T21:38:17.632Z,97750.94
2019-01-12T21:40:46.613Z,97756.66
2019-01-12T21:43:15.440Z,97752.09
2019-01-12T21:45:44.330Z,97748.48
2019-01-12T21:48:13.322Z,97747.65
2019-01-12T21:50:43.615Z,97739.78
2019-01-12T21:53:12.593Z,97730.94
2019-01-12T21:55:41.606Z,97733.56
2019-01-12T21:58:10.658Z,97736.19
2019-01-12T22:00:39.853Z,97722.55
2019-01-12T22:03:09.020Z,97718.98
2019-01-12T22:05:38.081Z,97720.53
2019-01-12T22:08:07.100Z,97714.75
2019-01-12T22:10:36.183Z,97711.62
2019-01-12T22:13:05.441Z,97706.37
2019-01-12T22:15:34.405Z,97705.20
2019-01-12T22:18:03.418Z,97691.72
2019-01-12T22:20:32.389Z,97697.95
2019-01-12T22:23:01.294Z,97694.51
2019-01-12T22:25:30.173Z,97694.67
2019-01-12T22:27:59.064Z,97694.02
2019-01-12T22:30:28.056Z,97689.28
2019-01-12T22:32:56.962Z,97685.21
2019-01-12T22:35:25.920Z,97683.23
2019-01-12T22:37:54.869Z,97679.30
2019-01-12T22:40:23.862Z,97676.98
2019-01-12T22:42:52.670Z,97678.56
2019-01-12T22:45:21.568Z,97675.11
2019-01-12T22:47:50.372Z,97671.17
2019-01-12T22:50:19.366Z,97666.41
2019-01-12T22:52:48.251Z,97655.73
2019-01-12T22:55:17.216Z,97654.94
2019-01-12T22:57:46.027Z,97656.20
2019-01-12T23:01:08.284Z,97656.05
2019-01-12T23:03:37.453Z,97648.13
2019-01-12T23:06:06.347Z,97652.53
2019-01-12T23:08:35.268Z,97642.88
2019-01-12T23:11:04.363Z,97650.91
2019-01-12T23:13:33.249Z,97646.97
2019-01-12T23:16:02.231Z,97645.30
2019-01-12T23:18:31.184Z,97642.67
2019-01-12T23:21:00.228Z,97644.99
2019-01-12T23:23:29.215Z,97637.91
2019-01-12T23:25:58.191Z,97632.05
2019-01-12T23:28:27.286Z,97618.94
2019-01-12T23:30:56.179Z,97622.72
2019-01-12T23:33:25.069Z,97617.84
2019-01-12T23:35:54.051Z,97616.22
2019-01-12T23:38:22.953Z,97607.16
2019-01-12T23:40:51.854Z,97610.78
2019-01-12T23:43:20.913Z,97596.34
2019-01-12T23:45:49.867Z,97605.02
2019-01-12T23:48:18.855Z,97604.53
2019-01-12T23:50:47.949Z,97613.53
2019-01-12T23:53:16.931Z,97602.70
2019-01-12T23:55:45.824Z,97608.91
2019-01-12T23:58:14.906Z,97605.70
